sensor_id;sensor_type;location;lat;lon;timestamp;pressure;altitude;pressure_sealevel;temperature;humidity
61757;BME280;57225;61.460;24.060;2022-12-20T00:01:31;100003.34;;;-1.34;100.00
61757;BME280;57225;61.460;24.060;2022-12-20T00:04:15;99991.44;;;-1.30;100.00
61757;BME280;57225;61.460;24.060;2022-12-20T00:06:59;99997.19;;;-1.23;100.00
61757;BME280;57225;61.460;24.060;2022-12-20T00:09:44;99994.47;;;-1.23;100.00
61757;BME280;57225;61.460;24.060;2022-12-20T00:12:28;99978.56;;;-1.29;100.00
61757;BME280;57225;61.460;24.060;2022-12-20T00:15:12;99976.94;;;-1.22;100.00
61757;BME280;57225;61.460;24.060;2022-12-20T00:17:56;99970.50;;;-1.26;100.00
61757;BME280;57225;61.460;24.060;2022-12-20T00:20:40;99967.75;;;-1.26;100.00
61757;BME280;57225;61.460;24.060;2022-12-20T00:23:24;99960.97;;;-1.19;100.00
61757;BME280;57225;61.460;24.060;2022-12-20T00:26:15;99964.19;;;-1.17;100.00
61757;BME280;57225;61.460;24.060;2022-12-20T00:29:00;99957.13;;;-1.18;100.00
61757;BME280;57225;61.460;24.060;2022-12-20T00:31:44;99954.91;;;-1.25;100.00
61757;BME280;57225;61.460;24.060;2022-12-20T00:34:28;99951.53;;;-1.22;100.00
61757;BME280;57225;61.460;24.060;2022-12-20T00:37:12;99951.19;;;-1.20;100.00
61757;BME280;57225;61.460;24.060;2022-12-20T00:39:56;99948.59;;;-1.17;100.00
61757;BME280;57225;61.460;24.060;2022-12-20T00:42:40;99948.56;;;-1.08;100.00
61757;BME280;57225;61.460;24.060;2022-12-20T00:45:24;99955.44;;;-1.02;100.00
61757;BME280;57225;61.460;24.060;2022-12-20T00:48:09;99950.50;;;-1.09;100.00
61757;BME280;57225;61.460;24.060;2022-12-20T00:50:56;99939.88;;;-1.10;100.00
61757;BME280;57225;61.460;24.060;2022-12-20T00:53:41;99935.81;;;-1.04;100.00
61757;BME280;57225;61.460;24.060;2022-12-20T00:56:24;99932.59;;;-1.06;100.00
61757;BME280;57225;61.460;24.060;2022-12-20T00:59:08;99929.56;;;-1.05;100.00
61757;BME280;57225;61.460;24.060;2022-12-20T01:01:52;99910.22;;;-1.00;100.00
61757;BME280;57225;61.460;24.060;2022-12-20T01:04:37;99920.06;;;-1.07;100.00
61757;BME280;57225;61.460;24.060;2022-12-20T01:07:21;99908.34;;;-1.08;100.00
61757;BME280;57225;61.460;24.060;2022-12-20T01:10:06;99888.13;;;-1.15;100.00
61757;BME280;57225;61.460;24.060;2022-12-20T01:12:51;99909.56;;;-0.97;100.00
61757;BME280;57225;61.460;24.060;2022-12-20T01:15:35;99905.69;;;-0.96;100.00
61757;BME280;57225;61.460;24.060;2022-12-20T01:18:19;99898.81;;;-1.02;100.00
61757;BME280;57225;61.460;24.060;2022-12-20T01:21:04;99894.16;;;-1.01;100.00
61757;BME280;57225;61.460;24.060;2022-12-20T01:23:48;99893.81;;;-1.00;100.00
61757;BME280;57225;61.460;24.060;2022-12-20T01:26:33;99885.56;;;-0.91;100.00
61757;BME280;57225;61.460;24.060;2022-12-20T01:29:17;99888.00;;;-0.98;100.00
61757;BME280;57225;61.460;24.060;2022-12-20T01:32:01;99885.94;;;-1.01;100.00
61757;BME280;57225;61.460;24.060;2022-12-20T01:34:45;99877.41;;;-1.00;100.00
61757;BME280;57225;61.460;24.060;2022-12-20T01:37:29;99869.19;;;-1.00;100.00
61757;BME280;57225;61.460;24.060;2022-12-20T01:40:14;99870.16;;;-0.96;100.00
61757;BME280;57225;61.460;24.060;2022-12-20T01:42:58;99858.72;;;-0.98;100.00
61757;BME280;57225;61.460;24.060;2022-12-20T01:45:42;99866.34;;;-1.03;100.00
61757;BME280;57225;61.460;24.060;2022-12-20T01:48:26;99860.19;;;-1.00;100.00
61757;BME280;57225;61.460;24.060;2022-12-20T01:51:09;99862.91;;;-1.00;100.00
61757;BME280;57225;61.460;24.060;2022-12-20T01:53:57;99858.59;;;-1.01;100.00
61757;BME280;57225;61.460;24.060;2022-12-20T01:56:47;99863.00;;;-1.09;100.00
61757;BME280;57225;61.460;24.060;2022-12-20T01:59:34;99857.81;;;-1.02;100.00
61757;BME280;57225;61.460;24.060;2022-12-20T02:02:20;99857.66;;;-1.05;100.00
61757;BME280;57225;61.460;24.060;2022-12-20T02:05:04;99858.59;;;-1.01;100.00
61757;BME280;57225;61.460;24.060;2022-12-20T02:07:49;99846.50;;;-1.00;100.00
61757;BME280;57225;61.460;24.060;2022-12-20T02:10:38;99851.38;;;-1.06;100.00
61757;BME280;57225;61.460;24.060;2022-12-20T02:13:36;99857.53;;;-1.09;100.00
61757;BME280;57225;61.460;24.060;2022-12-20T02:16:25;99852.25;;;-1.14;100.00
61757;BME280;57225;61.460;24.060;2022-12-20T02:28:28;99847.56;;;-1.13;100.00
61757;BME280;57225;61.460;24.060;2022-12-20T02:31:18;99831.03;;;-1.17;100.00
61757;BME280;57225;61.460;24.060;2022-12-20T02:34:04;99841.50;;;-1.19;100.00
61757;BME280;57225;61.460;24.060;2022-12-20T02:36:48;99838.31;;;-1.21;100.00
61757;BME280;57225;61.460;24.060;2022-12-20T02:39:32;99842.56;;;-1.11;100.00
61757;BME280;57225;61.460;24.060;2022-12-20T02:42:18;99835.22;;;-1.19;100.00
61757;BME280;57225;61.460;24.060;2022-12-20T02:45:05;99836.03;;;-1.19;100.00
61757;BME280;57225;61.460;24.060;2022-12-20T02:48:04;99822.94;;;-1.13;100.00
61757;BME280;57225;61.460;24.060;2022-12-20T02:50:49;99815.91;;;-1.14;100.00
61757;BME280;57225;61.460;24.060;2022-12-20T02:53:35;99801.81;;;-1.25;100.00
61757;BME280;57225;61.460;24.060;2022-12-20T02:59:10;99796.53;;;-1.30;100.00
61757;BME280;57225;61.460;24.060;2022-12-20T03:01:57;99790.28;;;-1.31;100.00
61757;BME280;57225;61.460;24.060;2022-12-20T03:04:41;99790.53;;;-1.24;100.00
61757;BME280;57225;61.460;24.060;2022-12-20T03:07:26;99796.69;;;-1.27;100.00
61757;BME280;57225;61.460;24.060;2022-12-20T03:10:11;99789.91;;;-1.20;100.00
61757;BME280;57225;61.460;24.060;2022-12-20T03:12:55;99786.53;;;-1.26;100.00
61757;BME280;57225;61.460;24.060;2022-12-20T03:15:39;99778.22;;;-1.30;100.00
61757;BME280;57225;61.460;24.060;2022-12-20T03:18:24;99776.41;;;-1.26;100.00
61757;BME280;57225;61.460;24.060;2022-12-20T03:21:08;99770.66;;;-1.33;100.00
61757;BME280;57225;61.460;24.060;2022-12-20T03:23:52;99769.25;;;-1.39;100.00
61757;BME280;57225;61.460;24.060;2022-12-20T03:26:36;99761.47;;;-1.28;100.00
61757;BME280;57225;61.460;24.060;2022-12-20T03:29:20;99758.16;;;-1.34;100.00
61757;BME280;57225;61.460;24.060;2022-12-20T03:32:04;99753.13;;;-1.32;100.00
61757;BME280;57225;61.460;24.060;2022-12-20T03:34:49;99746.81;;;-1.24;100.00
61757;BME280;57225;61.460;24.060;2022-12-20T03:37:33;99742.69;;;-1.30;100.00
61757;BME280;57225;61.460;24.060;2022-12-20T03:40:18;99734.00;;;-1.32;100.00
61757;BME280;57225;61.460;24.060;2022-12-20T03:43:02;99732.53;;;-1.29;100.00
61757;BME280;57225;61.460;24.060;2022-12-20T03:45:46;99736.47;;;-1.39;100.00
61757;BME280;57225;61.460;24.060;2022-12-20T03:48:30;99723.97;;;-1.40;100.00
61757;BME280;57225;61.460;24.060;2022-12-20T03:51:15;99717.22;;;-1.42;100.00
61757;BME280;57225;61.460;24.060;2022-12-20T03:53:59;99715.75;;;-1.40;100.00
61757;BME280;57225;61.460;24.060;2022-12-20T03:56:43;99712.41;;;-1.45;100.00
61757;BME280;57225;61.460;24.060;2022-12-20T03:59:27;99715.81;;;-1.48;100.00
61757;BME280;57225;61.460;24.060;2022-12-20T04:02:11;99703.47;;;-1.54;100.00
61757;BME280;57225;61.460;24.060;2022-12-20T04:04:55;99701.06;;;-1.56;100.00
61757;BME280;57225;61.460;24.060;2022-12-20T04:07:39;99688.81;;;-1.50;100.00
61757;BME280;57225;61.460;24.060;2022-12-20T04:10:23;99681.75;;;-1.51;100.00
61757;BME280;57225;61.460;24.060;2022-12-20T04:13:07;99680.63;;;-1.50;100.00
61757;BME280;57225;61.460;24.060;2022-12-20T04:15:51;99680.81;;;-1.55;100.00
61757;BME280;57225;61.460;24.060;2022-12-20T04:18:35;99687.56;;;-1.52;100.00
61757;BME280;57225;61.460;24.060;2022-12-20T04:21:26;99692.41;;;-1.58;100.00
61757;BME280;57225;61.460;24.060;2022-12-20T04:24:10;99682.53;;;-1.50;100.00
61757;BME280;57225;61.460;24.060;2022-12-20T04:26:54;99688.91;;;-1.58;100.00
61757;BME280;57225;61.460;24.060;2022-12-20T04:29:39;99685.97;;;-1.53;100.00
61757;BME280;57225;61.460;24.060;2022-12-20T04:32:23;99678.75;;;-1.58;100.00
61757;BME280;57225;61.460;24.060;2022-12-20T04:35:07;99681.03;;;-1.60;100.00
61757;BME280;57225;61.460;24.060;2022-12-20T04:37:51;99676.00;;;-1.58;100.00
61757;BME280;57225;61.460;24.060;2022-12-20T04:40:35;99678.94;;;-1.63;100.00
61757;BME280;57225;61.460;24.060;2022-12-20T04:43:19;99663.88;;;-1.69;100.00
61757;BME280;57225;61.460;24.060;2022-12-20T04:46:04;99656.38;;;-1.72;100.00
61757;BME280;57225;61.460;24.060;2022-12-20T04:48:48;99657.50;;;-1.73;100.00
61757;BME280;57225;61.460;24.060;2022-12-20T04:51:32;99663.88;;;-1.69;100.00
61757;BME280;57225;61.460;24.060;2022-12-20T04:54:16;99652.50;;;-1.71;100.00
61757;BME280;57225;61.460;24.060;2022-12-20T04:57:00;99650.69;;;-1.67;100.00
61757;BME280;57225;61.460;24.060;2022-12-20T04:59:44;99643.50;;;-1.72;100.00
61757;BME280;57225;61.460;24.060;2022-12-20T05:02:28;99633.41;;;-1.71;100.00
61757;BME280;57225;61.460;24.060;2022-12-20T05:05:12;99626.13;;;-1.67;100.00
61757;BME280;57225;61.460;24.060;2022-12-20T05:07:57;99628.25;;;-1.73;100.00
61757;BME280;57225;61.460;24.060;2022-12-20T05:10:40;99634.03;;;-1.74;100.00
61757;BME280;57225;61.460;24.060;2022-12-20T05:13:24;99624.41;;;-1.72;100.00
61757;BME280;57225;61.460;24.060;2022-12-20T05:16:08;99631.63;;;-1.76;100.00
61757;BME280;57225;61.460;24.060;2022-12-20T05:18:52;99621.25;;;-1.82;100.00
61757;BME280;57225;61.460;24.060;2022-12-20T05:21:36;99615.94;;;-1.79;100.00
61757;BME280;57225;61.460;24.060;2022-12-20T05:24:39;99621.25;;;-1.82;100.00
61757;BME280;57225;61.460;24.060;2022-12-20T05:27:41;99620.00;;;-1.85;100.00
61757;BME280;57225;61.460;24.060;2022-12-20T05:30:25;99618.50;;;-1.82;100.00
61757;BME280;57225;61.460;24.060;2022-12-20T05:33:10;99618.25;;;-1.89;100.00
61757;BME280;57225;61.460;24.060;2022-12-20T05:35:54;99623.97;;;-1.82;100.00
61757;BME280;57225;61.460;24.060;2022-12-20T05:38:38;99614.66;;;-1.81;100.00
61757;BME280;57225;61.460;24.060;2022-12-20T05:41:23;99605.34;;;-1.80;100.00
61757;BME280;57225;61.460;24.060;2022-12-20T05:44:07;99597.34;;;-1.85;100.00
61757;BME280;57225;61.460;24.060;2022-12-20T05:46:51;99605.38;;;-1.89;100.00
61757;BME280;57225;61.460;24.060;2022-12-20T05:49:35;99603.72;;;-1.81;100.00
61757;BME280;57225;61.460;24.060;2022-12-20T05:52:20;99604.25;;;-1.88;100.00
61757;BME280;57225;61.460;24.060;2022-12-20T05:55:04;99594.63;;;-1.85;100.00
61757;BME280;57225;61.460;24.060;2022-12-20T05:57:48;99591.19;;;-1.82;100.00
61757;BME280;57225;61.460;24.060;2022-12-20T06:00:33;99588.47;;;-1.82;100.00
61757;BME280;57225;61.460;24.060;2022-12-20T06:03:17;99578.34;;;-1.82;100.00
61757;BME280;57225;61.460;24.060;2022-12-20T06:06:01;99559.72;;;-2.00;100.00
61757;BME280;57225;61.460;24.060;2022-12-20T06:08:45;99578.22;;;-1.85;100.00
61757;BME280;57225;61.460;24.060;2022-12-20T06:11:29;99576.16;;;-1.88;100.00
61757;BME280;57225;61.460;24.060;2022-12-20T06:14:13;99579.25;;;-1.90;100.00
61757;BME280;57225;61.460;24.060;2022-12-20T06:16:57;99580.81;;;-1.89;100.00
61757;BME280;57225;61.460;24.060;2022-12-20T06:19:42;99576.84;;;-1.91;100.00
61757;BME280;57225;61.460;24.060;2022-12-20T06:22:25;99565.75;;;-1.95;100.00
61757;BME280;57225;61.460;24.060;2022-12-20T06:25:09;99571.59;;;-1.96;100.00
61757;BME280;57225;61.460;24.060;2022-12-20T06:27:55;99571.81;;;-1.89;100.00
61757;BME280;57225;61.460;24.060;2022-12-20T06:30:39;99564.78;;;-1.90;100.00
61757;BME280;57225;61.460;24.060;2022-12-20T06:33:23;99561.69;;;-1.89;100.00
61757;BME280;57225;61.460;24.060;2022-12-20T06:36:07;99548.13;;;-1.97;100.00
61757;BME280;57225;61.460;24.060;2022-12-20T06:38:51;99567.03;;;-1.92;100.00
61757;BME280;57225;61.460;24.060;2022-12-20T06:41:35;99558.59;;;-1.99;100.00
61757;BME280;57225;61.460;24.060;2022-12-20T06:44:19;99556.44;;;-1.94;100.00
61757;BME280;57225;61.460;24.060;2022-12-20T06:47:04;99553.66;;;-1.85;100.00
61757;BME280;57225;61.460;24.060;2022-12-20T06:49:47;99553.59;;;-1.97;100.00
61757;BME280;57225;61.460;24.060;2022-12-20T06:52:32;99549.19;;;-1.90;100.00
61757;BME280;57225;61.460;24.060;2022-12-20T06:55:16;99545.84;;;-1.95;100.00
61757;BME280;57225;61.460;24.060;2022-12-20T06:58:00;99544.50;;;-1.89;100.00
61757;BME280;57225;61.460;24.060;2022-12-20T07:00:44;99537.59;;;-1.87;100.00
61757;BME280;57225;61.460;24.060;2022-12-20T07:03:27;99539.75;;;-1.92;100.00
61757;BME280;57225;61.460;24.060;2022-12-20T07:06:11;99535.56;;;-1.90;100.00
61757;BME280;57225;61.460;24.060;2022-12-20T07:08:55;99532.56;;;-1.97;100.00
61757;BME280;57225;61.460;24.060;2022-12-20T07:11:39;99528.22;;;-1.98;100.00
61757;BME280;57225;61.460;24.060;2022-12-20T07:14:25;99522.97;;;-2.03;100.00
61757;BME280;57225;61.460;24.060;2022-12-20T07:17:09;99528.56;;;-1.99;100.00
61757;BME280;57225;61.460;24.060;2022-12-20T07:19:53;99520.56;;;-2.05;100.00
61757;BME280;57225;61.460;24.060;2022-12-20T07:22:37;99514.69;;;-1.94;100.00
61757;BME280;57225;61.460;24.060;2022-12-20T07:25:21;99506.97;;;-1.92;100.00
61757;BME280;57225;61.460;24.060;2022-12-20T07:28:05;99497.88;;;-1.96;100.00
61757;BME280;57225;61.460;24.060;2022-12-20T07:30:49;99501.94;;;-2.03;100.00
61757;BME280;57225;61.460;24.060;2022-12-20T07:33:34;99500.78;;;-2.02;100.00
61757;BME280;57225;61.460;24.060;2022-12-20T07:36:18;99500.78;;;-2.02;100.00
61757;BME280;57225;61.460;24.060;2022-12-20T07:39:02;99498.19;;;-1.98;100.00
61757;BME280;57225;61.460;24.060;2022-12-20T07:41:46;99492.59;;;-2.02;100.00
61757;BME280;57225;61.460;24.060;2022-12-20T07:44:30;99498.72;;;-2.05;100.00
61757;BME280;57225;61.460;24.060;2022-12-20T07:47:14;99492.41;;;-1.96;100.00
61757;BME280;57225;61.460;24.060;2022-12-20T07:49:58;99494.19;;;-2.00;100.00
61757;BME280;57225;61.460;24.060;2022-12-20T07:52:42;99499.06;;;-2.06;100.00
61757;BME280;57225;61.460;24.060;2022-12-20T07:55:29;99493.06;;;-1.99;100.00
61757;BME280;57225;61.460;24.060;2022-12-20T07:58:14;99497.94;;;-2.05;100.00
61757;BME280;57225;61.460;24.060;2022-12-20T08:00:59;99491.47;;;-2.00;100.00
61757;BME280;57225;61.460;24.060;2022-12-20T08:03:45;99482.13;;;-1.99;100.00
61757;BME280;57225;61.460;24.060;2022-12-20T08:06:30;99478.50;;;-2.04;100.00
61757;BME280;57225;61.460;24.060;2022-12-20T08:09:15;99479.88;;;-1.97;100.00
61757;BME280;57225;61.460;24.060;2022-12-20T08:11:59;99482.34;;;-2.05;100.00
61757;BME280;57225;61.460;24.060;2022-12-20T08:14:43;99479.88;;;-1.97;100.00
61757;BME280;57225;61.460;24.060;2022-12-20T08:17:28;99478.75;;;-1.96;100.00
61757;BME280;57225;61.460;24.060;2022-12-20T08:20:12;99471.44;;;-2.05;100.00
61757;BME280;57225;61.460;24.060;2022-12-20T08:22:56;99482.13;;;-1.99;100.00
61757;BME280;57225;61.460;24.060;2022-12-20T08:25:40;99477.59;;;-1.95;100.00
61757;BME280;57225;61.460;24.060;2022-12-20T08:28:24;99477.81;;;-2.00;100.00
61757;BME280;57225;61.460;24.060;2022-12-20T08:31:08;99480.28;;;-2.08;100.00
61757;BME280;57225;61.460;24.060;2022-12-20T08:33:53;99477.00;;;-2.01;100.00
61757;BME280;57225;61.460;24.060;2022-12-20T08:36:38;99471.22;;;-1.99;100.00
61757;BME280;57225;61.460;24.060;2022-12-20T08:39:23;99473.94;;;-1.99;100.00
61757;BME280;57225;61.460;24.060;2022-12-20T08:42:07;99467.03;;;-1.97;100.00
61757;BME280;57225;61.460;24.060;2022-12-20T08:44:51;99465.97;;;-2.05;100.00
61757;BME280;57225;61.460;24.060;2022-12-20T08:47:35;99460.03;;;-2.07;100.00
61757;BME280;57225;61.460;24.060;2022-12-20T08:50:20;99463.25;;;-2.05;100.00
61757;BME280;57225;61.460;24.060;2022-12-20T08:53:04;99464.59;;;-2.11;100.00
61757;BME280;57225;61.460;24.060;2022-12-20T08:55:49;99448.28;;;-2.19;100.00
61757;BME280;57225;61.460;24.060;2022-12-20T08:58:33;99462.50;;;-2.14;100.00
61757;BME280;57225;61.460;24.060;2022-12-20T09:01:18;99458.31;;;-2.11;100.00
61757;BME280;57225;61.460;24.060;2022-12-20T09:04:04;99462.78;;;-2.07;100.00
61757;BME280;57225;61.460;24.060;2022-12-20T09:06:49;99463.03;;;-1.99;100.00
61757;BME280;57225;61.460;24.060;2022-12-20T09:09:32;99464.38;;;-2.06;100.00
61757;BME280;57225;61.460;24.060;2022-12-20T09:12:17;99465.03;;;-2.09;100.00
61757;BME280;57225;61.460;24.060;2022-12-20T09:15:00;99459.28;;;-1.95;100.00
61757;BME280;57225;61.460;24.060;2022-12-20T09:17:44;99452.00;;;-2.03;100.00
61757;BME280;57225;61.460;24.060;2022-12-20T09:20:29;99452.53;;;-2.10;100.00
61757;BME280;57225;61.460;24.060;2022-12-20T09:23:14;99449.59;;;-2.05;100.00
61757;BME280;57225;61.460;24.060;2022-12-20T09:26:04;99446.13;;;-2.14;100.00
61757;BME280;57225;61.460;24.060;2022-12-20T09:28:49;99440.66;;;-2.14;100.00
61757;BME280;57225;61.460;24.060;2022-12-20T09:31:33;99442.88;;;-2.07;100.00
61757;BME280;57225;61.460;24.060;2022-12-20T09:34:18;99440.22;;;-2.16;100.00
61757;BME280;57225;61.460;24.060;2022-12-20T09:37:01;99439.06;;;-2.15;100.00
61757;BME280;57225;61.460;24.060;2022-12-20T09:39:47;99435.47;;;-2.07;100.00
61757;BME280;57225;61.460;24.060;2022-12-20T09:42:31;99399.00;;;-2.35;100.00
61757;BME280;57225;61.460;24.060;2022-12-20T09:45:24;99430.56;;;-2.13;100.00
61757;BME280;57225;61.460;24.060;2022-12-20T09:48:16;99432.69;;;-2.19;100.00
61757;BME280;57225;61.460;24.060;2022-12-20T09:51:24;99423.13;;;-2.25;100.00
61757;BME280;57225;61.460;24.060;2022-12-20T10:00:09;99420.88;;;-2.23;100.00
61757;BME280;57225;61.460;24.060;2022-12-20T10:02:58;99424.72;;;-2.24;100.00
61757;BME280;57225;61.460;24.060;2022-12-20T10:05:54;99411.41;;;-2.25;100.00
61757;BME280;57225;61.460;24.060;2022-12-20T10:12:17;99400.16;;;-2.24;100.00
61757;BME280;57225;61.460;24.060;2022-12-20T10:23:45;99386.25;;;-2.31;100.00
61757;BME280;57225;61.460;24.060;2022-12-20T10:26:33;99380.59;;;-2.26;100.00
61757;BME280;57225;61.460;24.060;2022-12-20T10:29:17;99371.06;;;-2.20;100.00
61757;BME280;57225;61.460;24.060;2022-12-20T10:32:04;99358.69;;;-2.17;100.00
61757;BME280;57225;61.460;24.060;2022-12-20T10:37:56;99359.59;;;-2.13;100.00
61757;BME280;57225;61.460;24.060;2022-12-20T10:40:44;99356.44;;;-2.03;100.00
61757;BME280;57225;61.460;24.060;2022-12-20T10:43:39;99349.25;;;-2.08;100.00
61757;BME280;57225;61.460;24.060;2022-12-20T10:46:39;99353.91;;;-2.08;100.00
61757;BME280;57225;61.460;24.060;2022-12-20T10:49:31;99342.41;;;-2.14;100.00
61757;BME280;57225;61.460;24.060;2022-12-20T10:52:15;99336.94;;;-2.14;100.00
61757;BME280;57225;61.460;24.060;2022-12-20T10:55:00;99339.25;;;-2.16;100.00
61757;BME280;57225;61.460;24.060;2022-12-20T10:57:44;99339.03;;;-2.11;100.00
61757;BME280;57225;61.460;24.060;2022-12-20T11:00:29;99336.28;;;-2.11;100.00
61757;BME280;57225;61.460;24.060;2022-12-20T11:03:18;99325.81;;;-2.09;100.00
61757;BME280;57225;61.460;24.060;2022-12-20T11:06:11;99331.50;;;-2.14;100.00
61757;BME280;57225;61.460;24.060;2022-12-20T11:09:20;99333.22;;;-2.09;100.00
61757;BME280;57225;61.460;24.060;2022-12-20T11:12:12;99320.13;;;-2.16;100.00
61757;BME280;57225;61.460;24.060;2022-12-20T11:15:10;99325.78;;;-2.21;100.00
61757;BME280;57225;61.460;24.060;2022-12-20T11:18:05;99317.28;;;-2.19;100.00
61757;BME280;57225;61.460;24.060;2022-12-20T11:20:56;99312.50;;;-2.22;100.00
61757;BME280;57225;61.460;24.060;2022-12-20T11:23:44;99320.34;;;-2.21;100.00
61757;BME280;57225;61.460;24.060;2022-12-20T11:29:47;99305.81;;;-2.13;100.00
61757;BME280;57225;61.460;24.060;2022-12-20T11:38:53;99290.69;;;-2.10;100.00
61757;BME280;57225;61.460;24.060;2022-12-20T11:42:01;99284.66;;;-2.16;100.00
61757;BME280;57225;61.460;24.060;2022-12-20T11:44:52;99280.22;;;-2.08;100.00
61757;BME280;57225;61.460;24.060;2022-12-20T11:53:38;99279.31;;;-2.12;100.00
61757;BME280;57225;61.460;24.060;2022-12-20T11:56:47;99274.88;;;-2.17;100.00
61757;BME280;57225;61.460;24.060;2022-12-20T11:59:40;99268.72;;;-2.14;100.00
61757;BME280;57225;61.460;24.060;2022-12-20T12:02:42;99263.84;;;-2.08;100.00
61757;BME280;57225;61.460;24.060;2022-12-20T12:05:28;99259.88;;;-2.11;100.00
61757;BME280;57225;61.460;24.060;2022-12-20T12:08:17;99253.94;;;-2.00;100.00
61757;BME280;57225;61.460;24.060;2022-12-20T12:11:17;99252.81;;;-1.99;100.00
61757;BME280;57225;61.460;24.060;2022-12-20T12:14:02;99244.06;;;-2.05;100.00
61757;BME280;57225;61.460;24.060;2022-12-20T12:16:49;99236.53;;;-2.08;100.00
61757;BME280;57225;61.460;24.060;2022-12-20T12:19:36;99237.56;;;-2.13;100.00
61757;BME280;57225;61.460;24.060;2022-12-20T12:22:25;99237.56;;;-2.13;100.00
61757;BME280;57225;61.460;24.060;2022-12-20T12:25:13;99237.09;;;-2.15;100.00
61757;BME280;57225;61.460;24.060;2022-12-20T12:27:59;99231.78;;;-2.11;100.00
61757;BME280;57225;61.460;24.060;2022-12-20T12:30:45;99223.69;;;-2.08;100.00
61757;BME280;57225;61.460;24.060;2022-12-20T12:33:33;99230.50;;;-2.14;100.00
61757;BME280;57225;61.460;24.060;2022-12-20T12:36:29;99228.72;;;-2.10;100.00
61757;BME280;57225;61.460;24.060;2022-12-20T12:45:33;99219.16;;;-2.16;100.00
61757;BME280;57225;61.460;24.060;2022-12-20T12:51:34;99218.13;;;-2.11;100.00
61757;BME280;57225;61.460;24.060;2022-12-20T12:54:23;99211.63;;;-2.07;100.00
61757;BME280;57225;61.460;24.060;2022-12-20T12:57:13;99201.50;;;-2.06;100.00
61757;BME280;57225;61.460;24.060;2022-12-20T12:59:58;99197.09;;;-2.11;100.00
61757;BME280;57225;61.460;24.060;2022-12-20T13:02:48;99205.28;;;-2.11;100.00
61757;BME280;57225;61.460;24.060;2022-12-20T13:05:33;99207.78;;;-2.06;100.00
61757;BME280;57225;61.460;24.060;2022-12-20T13:08:18;99204.59;;;-2.08;100.00
61757;BME280;57225;61.460;24.060;2022-12-20T13:11:02;99187.06;;;-2.07;100.00
61757;BME280;57225;61.460;24.060;2022-12-20T13:13:46;99188.75;;;-2.02;100.00
61757;BME280;57225;61.460;24.060;2022-12-20T13:16:30;99175.94;;;-2.14;100.00
61757;BME280;57225;61.460;24.060;2022-12-20T13:24:58;99167.72;;;-2.02;100.00
61757;BME280;57225;61.460;24.060;2022-12-20T13:27:43;99180.94;;;-2.04;100.00
61757;BME280;57225;61.460;24.060;2022-12-20T13:30:27;99173.75;;;-1.96;100.00
61757;BME280;57225;61.460;24.060;2022-12-20T13:33:15;99168.88;;;-2.03;100.00
61757;BME280;57225;61.460;24.060;2022-12-20T13:38:54;99164.22;;;-1.90;100.00
61757;BME280;57225;61.460;24.060;2022-12-20T13:41:40;99162.72;;;-1.87;100.00
61757;BME280;57225;61.460;24.060;2022-12-20T13:44:39;99163.84;;;-1.88;100.00
61757;BME280;57225;61.460;24.060;2022-12-20T13:50:22;99159.06;;;-1.79;100.00
61757;BME280;57225;61.460;24.060;2022-12-20T13:53:15;99152.34;;;-1.82;100.00
61757;BME280;57225;61.460;24.060;2022-12-20T13:56:18;99152.47;;;-1.78;100.00
61757;BME280;57225;61.460;24.060;2022-12-20T13:59:04;99157.34;;;-1.72;100.00
61757;BME280;57225;61.460;24.060;2022-12-20T14:01:49;99148.00;;;-1.71;100.00
61757;BME280;57225;61.460;24.060;2022-12-20T14:04:39;99138.78;;;-1.66;100.00
61757;BME280;57225;61.460;24.060;2022-12-20T14:07:24;99136.59;;;-1.60;100.00
61757;BME280;57225;61.460;24.060;2022-12-20T14:10:16;99135.09;;;-1.58;100.00
61757;BME280;57225;61.460;24.060;2022-12-20T14:13:01;99131.34;;;-1.53;100.00
61757;BME280;57225;61.460;24.060;2022-12-20T14:15:45;99131.22;;;-1.57;100.00
61757;BME280;57225;61.460;24.060;2022-12-20T14:18:30;99133.28;;;-1.54;100.00
61757;BME280;57225;61.460;24.060;2022-12-20T14:21:14;99143.28;;;-1.58;100.00
61757;BME280;57225;61.460;24.060;2022-12-20T14:23:59;99140.56;;;-1.58;100.00
61757;BME280;57225;61.460;24.060;2022-12-20T14:26:44;99135.09;;;-1.58;100.00
61757;BME280;57225;61.460;24.060;2022-12-20T14:29:33;99133.72;;;-1.52;100.00
61757;BME280;57225;61.460;24.060;2022-12-20T14:32:18;99123.56;;;-1.51;100.00
61757;BME280;57225;61.460;24.060;2022-12-20T14:35:02;99126.56;;;-1.56;100.00
61757;BME280;57225;61.460;24.060;2022-12-20T14:37:57;99111.66;;;-1.59;100.00
61757;BME280;57225;61.460;24.060;2022-12-20T14:40:42;99112.09;;;-1.57;100.00
61757;BME280;57225;61.460;24.060;2022-12-20T14:43:28;99108.69;;;-1.54;100.00
61757;BME280;57225;61.460;24.060;2022-12-20T14:46:19;99107.34;;;-1.60;100.00
61757;BME280;57225;61.460;24.060;2022-12-20T14:49:06;99100.03;;;-1.56;100.00
61757;BME280;57225;61.460;24.060;2022-12-20T14:57:43;99101.03;;;-1.48;100.00
61757;BME280;57225;61.460;24.060;2022-12-20T15:00:29;99087.72;;;-1.50;100.00
61757;BME280;57225;61.460;24.060;2022-12-20T15:03:15;99090.56;;;-1.46;100.00
61757;BME280;57225;61.460;24.060;2022-12-20T15:06:04;99087.91;;;-1.43;100.00
61757;BME280;57225;61.460;24.060;2022-12-20T15:08:48;99084.25;;;-1.35;100.00
61757;BME280;57225;61.460;24.060;2022-12-20T15:11:33;99079.47;;;-1.38;100.00
61757;BME280;57225;61.460;24.060;2022-12-20T15:17:09;99071.72;;;-1.36;100.00
61757;BME280;57225;61.460;24.060;2022-12-20T15:19:53;99064.78;;;-1.33;100.00
61757;BME280;57225;61.460;24.060;2022-12-20T15:22:37;99063.53;;;-1.36;100.00
61757;BME280;57225;61.460;24.060;2022-12-20T15:25:22;99056.19;;;-1.32;100.00
61757;BME280;57225;61.460;24.060;2022-12-20T15:28:19;99055.84;;;-1.30;100.00
61757;BME280;57225;61.460;24.060;2022-12-20T15:31:04;99044.38;;;-1.36;100.00
61757;BME280;57225;61.460;24.060;2022-12-20T15:33:48;99045.28;;;-1.32;100.00
61757;BME280;57225;61.460;24.060;2022-12-20T15:36:33;99037.53;;;-1.30;100.00